createdAt,value
2024-01-18T00:02:10.996Z,100427.94
2024-01-18T00:04:42.943Z,100424.94
2024-01-18T00:07:14.170Z,100415.06
2024-01-18T00:09:44.269Z,100427.94
2024-01-18T00:12:14.654Z,100439.09
2024-01-18T00:14:44.785Z,100447.72
2024-01-18T00:17:15.115Z,100455.06
2024-01-18T00:19:45.343Z,100448.97
2024-01-18T00:22:16.384Z,100445.03
2024-01-18T00:24:47.400Z,100446.88
2024-01-18T00:27:17.757Z,100456.19
2024-01-18T00:29:47.835Z,100461.28
2024-01-18T00:32:18.175Z,100460.44
2024-01-18T00:34:48.151Z,100463.69
2024-01-18T00:37:18.500Z,100469.63
2024-01-18T00:39:49.145Z,100463.41
2024-01-18T00:42:19.122Z,100452.06
2024-01-18T00:44:51.834Z,100433.72
2024-01-18T00:47:21.313Z,100427.19
2024-01-18T00:49:51.719Z,100414.47
2024-01-18T00:52:21.605Z,100411.78
2024-01-18T00:54:52.220Z,100414.91
2024-01-18T00:57:23.161Z,100420.84
2024-01-18T00:59:54.508Z,100423.25
2024-01-18T01:02:25.351Z,100427.19
2024-01-18T01:04:55.719Z,100430.28
2024-01-18T01:07:27.268Z,100431.13
2024-01-18T01:09:58.029Z,100427.28
2024-01-18T01:12:27.959Z,100423.19
2024-01-18T01:14:58.459Z,100416.03
2024-01-18T01:17:28.343Z,100431.69
2024-01-18T01:20:00.059Z,100438.34
2024-01-18T01:22:30.529Z,100451.22
2024-01-18T01:25:00.625Z,100450.41
2024-01-18T01:27:31.838Z,100456.78
2024-01-18T01:30:02.010Z,100460.84
2024-01-18T01:32:32.362Z,100456.19
2024-01-18T01:35:02.389Z,100451.41
2024-01-18T01:37:32.708Z,100441.63
2024-01-18T01:40:04.051Z,100427.88
2024-01-18T01:42:34.620Z,100416.44
2024-01-18T01:45:05.248Z,100419.22
2024-01-18T01:47:35.760Z,100422.44
2024-01-18T01:50:06.900Z,100422.69
2024-01-18T01:52:39.392Z,100411.41
2024-01-18T01:55:14.078Z,100405.34
2024-01-18T01:57:50.158Z,100402.78
2024-01-18T02:00:20.867Z,100391.81
2024-01-18T02:02:52.301Z,100388.00
2024-01-18T02:05:25.382Z,100377.13
2024-01-18T02:07:57.725Z,100374.44
2024-01-18T02:10:27.861Z,100373.56
2024-01-18T02:13:00.648Z,100380.78
2024-01-18T02:15:30.340Z,100384.59
2024-01-18T02:18:00.429Z,100374.25
2024-01-18T02:20:31.460Z,100344.47
2024-01-18T02:23:03.904Z,100337.13
2024-01-18T02:25:35.372Z,100335.16
2024-01-18T02:28:05.427Z,100337.25
2024-01-18T02:30:35.309Z,100342.06
2024-01-18T02:33:05.923Z,100343.50
2024-01-18T02:35:36.619Z,100343.06
2024-01-18T02:38:07.553Z,100341.81
2024-01-18T02:40:40.699Z,100345.19
2024-01-18T02:43:11.168Z,100333.75
2024-01-18T02:45:41.286Z,100322.31
2024-01-18T02:48:12.330Z,100308.91
2024-01-18T02:50:45.271Z,100307.06
2024-01-18T02:53:15.588Z,100307.63
2024-01-18T02:55:45.627Z,100310.88
2024-01-18T02:58:16.493Z,100308.75
2024-01-18T03:00:46.941Z,100313.13
2024-01-18T03:03:17.692Z,100314.97
2024-01-18T03:05:48.027Z,100307.44
2024-01-18T03:08:18.666Z,100306.59
2024-01-18T03:10:48.784Z,100307.31
2024-01-18T03:13:19.110Z,100294.47
2024-01-18T03:15:49.205Z,100295.63
2024-01-18T03:18:20.186Z,100296.47
2024-01-18T03:20:50.335Z,100300.28
2024-01-18T03:23:21.098Z,100305.06
2024-01-18T03:25:54.133Z,100308.03
2024-01-18T03:28:24.397Z,100327.13
2024-01-18T03:30:54.368Z,100295.94
2024-01-18T03:33:24.772Z,100308.06
2024-01-18T03:35:54.854Z,100309.19
2024-01-18T03:38:25.183Z,100302.69
2024-01-18T03:40:55.943Z,100295.34
2024-01-18T03:43:26.220Z,100290.97
2024-01-18T03:45:56.175Z,100286.19
2024-01-18T03:48:26.496Z,100291.84
2024-01-18T03:50:59.250Z,100297.72
2024-01-18T03:53:29.576Z,100287.56
2024-01-18T03:55:59.586Z,100285.75
2024-01-18T03:58:29.810Z,100297.31
2024-01-18T04:01:00.173Z,100285.41
2024-01-18T04:03:30.572Z,100278.66
2024-01-18T04:06:00.817Z,100269.72
2024-01-18T04:08:31.232Z,100282.88
2024-01-18T04:11:01.571Z,100290.47
2024-01-18T04:13:32.039Z,100299.09
2024-01-18T04:16:02.263Z,100294.75
2024-01-18T04:18:32.765Z,100297.81
2024-01-18T04:21:02.912Z,100299.50
2024-01-18T04:23:33.542Z,100290.50
2024-01-18T04:26:03.901Z,100278.22
2024-01-18T04:28:34.233Z,100262.25
2024-01-18T04:31:04.248Z,100254.47
2024-01-18T04:33:34.547Z,100265.06
2024-01-18T04:36:05.332Z,100263.09
2024-01-18T04:38:35.632Z,100269.88
2024-01-18T04:41:05.750Z,100264.22
2024-01-18T04:43:36.322Z,100254.63
2024-01-18T04:46:07.012Z,100246.56
2024-01-18T04:48:37.503Z,100250.53
2024-01-18T04:51:07.650Z,100240.63
2024-01-18T04:53:38.024Z,100237.66
2024-01-18T04:56:08.704Z,100243.72
2024-01-18T04:58:41.038Z,100239.75
2024-01-18T05:01:14.664Z,100228.38
2024-01-18T05:03:44.962Z,100222.72
2024-01-18T05:06:15.200Z,100224.94
2024-01-18T05:08:46.255Z,100226.09
2024-01-18T05:11:16.275Z,100228.59
2024-01-18T05:13:47.139Z,100223.22
2024-01-18T05:16:17.182Z,100230.56
2024-01-18T05:18:48.347Z,100223.41
2024-01-18T05:21:18.476Z,100211.53
2024-01-18T05:23:51.714Z,100209.72
2024-01-18T05:26:21.847Z,100213.81
2024-01-18T05:28:52.073Z,100211.28
2024-01-18T05:31:22.098Z,100218.19
2024-01-18T05:33:52.498Z,100223.56
2024-01-18T05:36:22.637Z,100214.09
2024-01-18T05:38:52.964Z,100219.78
2024-01-18T05:41:22.775Z,100223.84
2024-01-18T05:43:53.047Z,100210.59
2024-01-18T05:46:26.086Z,100209.47
2024-01-18T05:48:56.412Z,100211.56
2024-01-18T05:51:26.658Z,100212.59
2024-01-18T05:53:57.619Z,100211.31
2024-01-18T05:56:28.579Z,100202.72
2024-01-18T05:58:59.032Z,100206.53
2024-01-18T06:01:29.868Z,100206.78
2024-01-18T06:04:00.363Z,100216.66
2024-01-18T06:06:30.780Z,100210.75
2024-01-18T06:09:01.253Z,100206.09
2024-01-18T06:11:31.363Z,100203.00
2024-01-18T06:14:01.676Z,100206.38
2024-01-18T06:16:31.953Z,100212.59
2024-01-18T06:19:02.275Z,100214.13
2024-01-18T06:21:33.247Z,100217.13
2024-01-18T06:24:04.824Z,100214.56
2024-01-18T06:26:36.025Z,100213.69
2024-01-18T06:29:06.559Z,100210.31
2024-01-18T06:31:36.612Z,100207.81
2024-01-18T06:34:07.407Z,100203.72
2024-01-18T06:36:37.530Z,100211.91
2024-01-18T06:39:07.960Z,100207.81
2024-01-18T06:41:38.082Z,100205.81
2024-01-18T06:44:11.058Z,100210.47
2024-01-18T06:46:41.482Z,100207.09
2024-01-18T06:49:12.456Z,100205.13
2024-01-18T06:51:42.934Z,100203.16
2024-01-18T06:54:13.330Z,100202.56
2024-01-18T06:56:47.443Z,100188.47
2024-01-18T06:59:18.967Z,100189.75
2024-01-18T07:01:48.987Z,100196.50
2024-01-18T07:04:19.322Z,100203.16
2024-01-18T07:06:49.660Z,100197.06
2024-01-18T07:09:20.042Z,100197.06
2024-01-18T07:11:50.476Z,100189.16
2024-01-18T07:14:21.072Z,100192.56
2024-01-18T07:16:51.106Z,100194.53
2024-01-18T07:19:21.573Z,100191.41
2024-01-18T07:21:51.761Z,100194.81
2024-01-18T07:24:25.559Z,100202.16
2024-01-18T07:26:55.793Z,100200.47
2024-01-18T07:29:26.245Z,100183.53
2024-01-18T07:31:56.259Z,100186.34
2024-01-18T07:34:26.091Z,100179.44
2024-01-18T07:36:57.969Z,100183.97
2024-01-18T07:39:28.020Z,100184.69
2024-01-18T07:41:58.484Z,100183.25
2024-01-18T07:44:28.374Z,100193.25
2024-01-18T07:46:58.215Z,100193.41
2024-01-18T07:49:28.478Z,100189.59
2024-01-18T07:51:58.836Z,100188.03
2024-01-18T07:54:30.177Z,100190.56
2024-01-18T07:57:00.232Z,100184.38
2024-01-18T07:59:30.469Z,100190.88
2024-01-18T08:02:01.919Z,100208.09
2024-01-18T08:04:32.324Z,100210.06
2024-01-18T08:07:02.410Z,100213.16
2024-01-18T08:09:33.461Z,100208.09
2024-01-18T08:12:03.561Z,100221.09
2024-01-18T08:14:33.782Z,100230.28
2024-01-18T08:17:04.671Z,100226.44
2024-01-18T08:19:35.109Z,100232.22
2024-01-18T08:22:05.299Z,100222.34
2024-01-18T08:24:35.967Z,100228.16
2024-01-18T08:27:06.515Z,100236.63
2024-01-18T08:29:37.824Z,100243.13
2024-01-18T08:32:08.727Z,100252.41
2024-01-18T08:34:40.316Z,100255.56
2024-01-18T08:37:11.655Z,100262.75
2024-01-18T08:39:41.989Z,100277.72
2024-01-18T08:42:12.118Z,100287.75
2024-01-18T08:44:48.208Z,100288.31
2024-01-18T08:47:20.673Z,100302.72
2024-01-18T08:49:51.733Z,100298.75
2024-01-18T08:52:22.202Z,100301.75
2024-01-18T08:54:53.740Z,100297.50
2024-01-18T08:57:23.922Z,100301.19
2024-01-18T08:59:54.321Z,100285.34
2024-01-18T09:02:24.620Z,100277.44
2024-01-18T09:04:55.017Z,100256.38
2024-01-18T09:07:26.708Z,100254.41
2024-01-18T09:09:57.085Z,100254.72
2024-01-18T09:12:28.747Z,100255.97
2024-01-18T09:14:59.337Z,100254.97
2024-01-18T09:17:29.446Z,100260.34
2024-01-18T09:19:59.830Z,100257.06
2024-01-18T09:22:30.139Z,100256.66
2024-01-18T09:25:01.646Z,100257.94
2024-01-18T09:27:35.502Z,100254.28
2024-01-18T09:30:06.489Z,100276.28
2024-01-18T09:32:36.653Z,100290.25
2024-01-18T09:35:07.977Z,100309.22
2024-01-18T09:37:38.891Z,100308.06
2024-01-18T09:40:13.932Z,100310.03
2024-01-18T09:42:49.133Z,100301.09
2024-01-18T09:45:24.735Z,100298.25
2024-01-18T09:47:56.072Z,100307.53
2024-01-18T09:50:26.896Z,100312.13
2024-01-18T09:52:57.417Z,100307.41
2024-01-18T09:55:28.205Z,100315.31
2024-01-18T09:58:01.085Z,100312.88
2024-01-18T10:00:34.142Z,100300.19
2024-01-18T10:03:04.798Z,100298.56
2024-01-18T10:05:34.745Z,100298.16
2024-01-18T10:08:06.148Z,100303.59
2024-01-18T10:10:36.356Z,100314.31
2024-01-18T10:13:07.038Z,100321.03
2024-01-18T10:15:37.901Z,100310.03
2024-01-18T10:18:09.255Z,100301.88
2024-01-18T10:20:39.613Z,100301.22
2024-01-18T10:23:13.040Z,100296.22
2024-01-18T10:25:46.841Z,100304.09
2024-01-18T10:28:17.755Z,100294.81
2024-01-18T10:30:54.152Z,100287.69
2024-01-18T10:33:25.081Z,100275.88
2024-01-18T10:35:55.033Z,100283.59
2024-01-18T10:38:32.523Z,100285.69
2024-01-18T10:41:10.218Z,100280.03
2024-01-18T10:43:41.434Z,100281.66
2024-01-18T10:46:12.879Z,100290.25
2024-01-18T10:48:50.075Z,100295.88
2024-01-18T10:51:20.094Z,100290.00
2024-01-18T10:53:54.381Z,100292.34
2024-01-18T10:56:26.081Z,100297.13
2024-01-18T10:58:56.893Z,100308.13
2024-01-18T11:01:27.478Z,100308.97
2024-01-18T11:03:58.274Z,100302.28
2024-01-18T11:06:30.683Z,100305.91
2024-01-18T11:09:01.719Z,100314.16
2024-01-18T11:11:33.457Z,100309.22
2024-01-18T11:14:03.452Z,100312.28
2024-01-18T11:16:33.960Z,100301.84
2024-01-18T11:19:04.364Z,100304.91
2024-01-18T11:21:46.881Z,100306.31
2024-01-18T11:24:18.002Z,100321.56
2024-01-18T11:26:47.890Z,100315.94
2024-01-18T11:29:22.038Z,100318.59
2024-01-18T11:31:53.553Z,100336.78
2024-01-18T11:34:39.702Z,100329.13
2024-01-18T11:37:20.922Z,100335.59
2024-01-18T11:39:54.700Z,100345.88
2024-01-18T11:42:35.642Z,100355.69
2024-01-18T11:45:22.142Z,100344.28
2024-01-18T11:47:53.974Z,100354.28
2024-01-18T11:50:24.158Z,100359.72
2024-01-18T11:52:54.506Z,100351.16
2024-01-18T11:55:26.714Z,100342.91
2024-01-18T11:57:59.704Z,100350.75
2024-01-18T12:00:31.245Z,100347.03
2024-01-18T12:03:05.600Z,100345.34
2024-01-18T12:05:38.898Z,100353.97
2024-01-18T12:08:10.649Z,100339.38
2024-01-18T12:10:41.015Z,100341.84
2024-01-18T12:13:11.466Z,100336.97
2024-01-18T12:15:43.547Z,100332.91
2024-01-18T12:18:14.075Z,100324.81
2024-01-18T12:20:45.767Z,100315.78
2024-01-18T12:23:18.111Z,100325.22
2024-01-18T12:25:48.331Z,100310.25
2024-01-18T12:28:19.097Z,100324.13
2024-01-18T12:30:50.810Z,100320.25
2024-01-18T12:33:21.871Z,100323.81
2024-01-18T12:35:52.523Z,100320.41
2024-01-18T12:38:22.803Z,100318.53
2024-01-18T12:40:53.079Z,100306.13
2024-01-18T12:43:23.685Z,100309.81
2024-01-18T12:46:00.046Z,100306.53
2024-01-18T12:48:31.414Z,100298.59
2024-01-18T12:51:01.723Z,100294.88
2024-01-18T12:53:32.084Z,100279.06
2024-01-18T12:56:02.921Z,100286.50
2024-01-18T12:58:33.744Z,100282.50
2024-01-18T13:01:04.057Z,100286.41
2024-01-18T13:03:34.620Z,100282.91
2024-01-18T13:06:05.157Z,100283.53
2024-01-18T13:08:40.162Z,100290.56
2024-01-18T13:11:10.486Z,100287.41
2024-01-18T13:13:40.944Z,100283.09
2024-01-18T13:16:10.952Z,100285.09
2024-01-18T13:18:41.423Z,100285.13
2024-01-18T13:21:11.544Z,100279.09
2024-01-18T13:23:41.909Z,100279.31
2024-01-18T13:26:12.056Z,100271.34
2024-01-18T13:28:44.493Z,100272.38
2024-01-18T13:31:15.404Z,100260.81
2024-01-18T13:33:45.798Z,100259.91
2024-01-18T13:36:16.006Z,100251.50
2024-01-18T13:38:46.291Z,100251.78
2024-01-18T13:41:16.196Z,100257.44
2024-01-18T13:43:48.191Z,100257.22
2024-01-18T13:46:18.376Z,100263.75
2024-01-18T13:48:48.732Z,100260.56
2024-01-18T13:51:18.912Z,100254.19
2024-01-18T13:53:53.553Z,100247.88
2024-01-18T13:56:24.903Z,100253.72
2024-01-18T13:58:56.255Z,100263.22
2024-01-18T14:01:26.360Z,100258.53
2024-01-18T14:03:56.730Z,100258.91
2024-01-18T14:06:27.931Z,100255.47
2024-01-18T14:08:59.779Z,100253.66
2024-01-18T14:11:30.787Z,100248.22
2024-01-18T14:14:01.147Z,100233.16
2024-01-18T14:16:31.716Z,100231.06
2024-01-18T14:19:02.174Z,100248.00
2024-01-18T14:21:32.270Z,100237.25
2024-01-18T14:24:02.597Z,100234.13
2024-01-18T14:26:32.778Z,100226.00
2024-01-18T14:29:04.079Z,100222.31
2024-01-18T14:31:34.260Z,100227.53
2024-01-18T14:34:04.930Z,100227.16
2024-01-18T14:36:35.051Z,100222.41
2024-01-18T14:39:06.405Z,100226.31
2024-01-18T14:41:36.383Z,100222.94
2024-01-18T14:44:06.975Z,100223.44
2024-01-18T14:46:38.828Z,100221.66
2024-01-18T14:49:09.394Z,100222.19
2024-01-18T14:51:39.496Z,100232.50
2024-01-18T14:54:09.802Z,100225.41
2024-01-18T14:56:39.782Z,100224.50
2024-01-18T14:59:10.026Z,100218.50
2024-01-18T15:01:41.952Z,100218.19
2024-01-18T15:04:17.975Z,100219.81
2024-01-18T15:06:47.983Z,100216.97
2024-01-18T15:09:18.582Z,100223.00
2024-01-18T15:11:48.561Z,100220.78
2024-01-18T15:14:19.248Z,100210.94
2024-01-18T15:16:49.247Z,100206.78
2024-01-18T15:19:19.978Z,100217.13
2024-01-18T15:21:53.521Z,100211.41
2024-01-18T15:24:23.897Z,100213.94
2024-01-18T15:26:53.996Z,100212.56
2024-01-18T15:29:25.234Z,100211.84
2024-01-18T15:31:58.696Z,100217.81
2024-01-18T15:34:32.097Z,100217.34
2024-01-18T15:37:04.061Z,100207.69
2024-01-18T15:39:34.490Z,100201.56
2024-01-18T15:42:05.637Z,100194.31
2024-01-18T15:44:35.919Z,100189.09
2024-01-18T15:47:07.339Z,100196.50
2024-01-18T15:49:37.628Z,100200.41
2024-01-18T15:52:08.088Z,100189.44
2024-01-18T15:54:38.845Z,100191.94
2024-01-18T15:57:09.635Z,100198.69
2024-01-18T15:59:40.105Z,100198.72
2024-01-18T16:02:10.148Z,100194.59
2024-01-18T16:04:43.520Z,100189.16
2024-01-18T16:07:13.625Z,100188.25
2024-01-18T16:09:43.985Z,100178.50
2024-01-18T16:12:14.045Z,100176.22
2024-01-18T16:14:48.574Z,100179.41
2024-01-18T16:17:19.090Z,100176.66
2024-01-18T16:19:49.387Z,100179.50
2024-01-18T16:22:20.162Z,100185.69
2024-01-18T16:24:50.763Z,100180.84
2024-01-18T16:27:20.811Z,100175.19
2024-01-18T16:30:01.365Z,100169.84
2024-01-18T16:32:37.251Z,100172.16
2024-01-18T16:35:07.614Z,100180.69
2024-01-18T16:37:38.184Z,100166.09
2024-01-18T16:40:09.227Z,100161.50
2024-01-18T16:42:39.664Z,100170.50
2024-01-18T16:45:12.629Z,100161.84
2024-01-18T16:47:43.151Z,100160.03
2024-01-18T16:50:13.012Z,100157.28
2024-01-18T16:52:42.900Z,100150.72
2024-01-18T16:55:13.307Z,100157.38
2024-01-18T16:57:44.777Z,100144.47
2024-01-18T17:00:16.271Z,100144.56
2024-01-18T17:02:46.681Z,100133.72
2024-01-18T17:05:17.259Z,100135.44
2024-01-18T17:07:47.336Z,100135.75
2024-01-18T17:10:19.297Z,100123.25
2024-01-18T17:12:48.842Z,100122.00
2024-01-18T17:15:18.612Z,100118.38
2024-01-18T17:17:49.256Z,100106.28
2024-01-18T17:20:19.552Z,100092.97
2024-01-18T17:22:50.085Z,100091.91
2024-01-18T17:25:19.784Z,100086.97
2024-01-18T17:27:50.245Z,100070.97
2024-01-18T17:30:22.132Z,100074.81
2024-01-18T17:32:52.908Z,100083.19
2024-01-18T17:35:22.798Z,100081.63
2024-01-18T17:37:53.248Z,100089.28
2024-01-18T17:40:24.077Z,100081.25
2024-01-18T17:42:54.783Z,100078.81
2024-01-18T17:45:24.669Z,100071.41
2024-01-18T17:47:55.326Z,100068.63
2024-01-18T17:50:25.427Z,100072.63
2024-01-18T17:52:55.897Z,100057.94
2024-01-18T17:55:25.747Z,100060.22
2024-01-18T17:57:56.205Z,100060.69
2024-01-18T18:00:30.181Z,100052.66
2024-01-18T18:03:07.112Z,100054.94
2024-01-18T18:05:38.176Z,100050.94
2024-01-18T18:08:09.015Z,100048.78
2024-01-18T18:10:39.335Z,100041.28
2024-01-18T18:13:10.447Z,100044.09
2024-01-18T18:15:45.133Z,100048.31
2024-01-18T18:18:21.099Z,100056.50
2024-01-18T18:20:53.873Z,100048.72
2024-01-18T18:23:24.268Z,100043.66
2024-01-18T18:25:53.964Z,100043.56
2024-01-18T18:28:24.426Z,100046.31
2024-01-18T18:30:58.357Z,100043.03
2024-01-18T18:33:30.368Z,100037.31
2024-01-18T18:36:00.331Z,100036.59
2024-01-18T18:38:33.291Z,100031.84
2024-01-18T18:41:05.307Z,100043.94
2024-01-18T18:43:35.711Z,100048.94
2024-01-18T18:46:06.783Z,100048.22
2024-01-18T18:48:37.982Z,100047.53
2024-01-18T18:51:09.875Z,100042.28
2024-01-18T18:53:39.950Z,100028.19
2024-01-18T18:56:11.250Z,100023.94
2024-01-18T18:58:41.248Z,100025.63
2024-01-18T19:01:10.932Z,100031.53
2024-01-18T19:03:42.515Z,100028.69
2024-01-18T19:06:13.158Z,100029.50
2024-01-18T19:08:44.131Z,100025.41
2024-01-18T19:11:14.052Z,100011.25
2024-01-18T19:13:44.553Z,100007.94
2024-01-18T19:16:14.442Z,100006.97
2024-01-18T19:18:46.311Z,99995.16
2024-01-18T19:21:16.632Z,99992.31
2024-01-18T19:23:46.768Z,99996.44
2024-01-18T19:26:17.150Z,99989.16
2024-01-18T19:28:47.296Z,99970.94
2024-01-18T19:31:17.587Z,99970.22
2024-01-18T19:33:48.384Z,99981.72
2024-01-18T19:36:19.212Z,99986.97
2024-01-18T19:38:49.275Z,99976.91
2024-01-18T19:41:19.582Z,99978.94
2024-01-18T19:43:49.753Z,99983.34
2024-01-18T19:46:19.968Z,99981.09
2024-01-18T19:48:50.020Z,99982.94
2024-01-18T19:51:20.339Z,99976.81
2024-01-18T19:53:50.350Z,99977.22
2024-01-18T19:56:20.791Z,99964.75
2024-01-18T19:58:50.856Z,99979.16
2024-01-18T20:01:21.356Z,99973.19
2024-01-18T20:03:51.399Z,99982.41
2024-01-18T20:06:21.767Z,99982.84
2024-01-18T20:08:51.989Z,99978.16
2024-01-18T20:11:22.372Z,99960.78
2024-01-18T20:13:52.463Z,99958.09
2024-01-18T20:16:22.766Z,99963.28
2024-01-18T20:18:54.036Z,99976.69
2024-01-18T20:21:24.413Z,99975.72
2024-01-18T20:24:01.349Z,99967.03
2024-01-18T20:26:31.847Z,99962.31
2024-01-18T20:29:02.354Z,99964.66
2024-01-18T20:31:33.149Z,99964.06
2024-01-18T20:34:04.259Z,99961.84
2024-01-18T20:36:34.698Z,99983.47
2024-01-18T20:39:05.541Z,99977.13
2024-01-18T20:41:36.094Z,99973.72
2024-01-18T20:44:06.356Z,99977.19
2024-01-18T20:46:41.983Z,99971.69
2024-01-18T20:49:13.778Z,99972.84
2024-01-18T20:51:48.188Z,99965.50
2024-01-18T20:54:19.303Z,99974.28
2024-01-18T20:56:50.392Z,99983.34
2024-01-18T20:59:23.671Z,99982.66
2024-01-18T21:01:57.691Z,99980.34
2024-01-18T21:04:29.477Z,99981.44
2024-01-18T21:06:59.888Z,99981.81
2024-01-18T21:09:30.174Z,99990.59
2024-01-18T21:12:00.735Z,99993.03
2024-01-18T21:14:33.668Z,99979.66
2024-01-18T21:17:06.784Z,99975.19
2024-01-18T21:19:36.804Z,99984.34
2024-01-18T21:22:06.757Z,99979.16
2024-01-18T21:24:37.190Z,99974.50
2024-01-18T21:27:07.090Z,99976.63
2024-01-18T21:29:37.552Z,99979.50
2024-01-18T21:32:07.757Z,99981.94
2024-01-18T21:34:39.617Z,99976.88
2024-01-18T21:37:09.682Z,99974.25
2024-01-18T21:39:40.066Z,99970.19
2024-01-18T21:42:10.274Z,99969.78
2024-01-18T21:44:40.947Z,99974.66
2024-01-18T21:47:11.614Z,99973.19
2024-01-18T21:49:42.347Z,99974.63
2024-01-18T21:52:13.700Z,99981.06
2024-01-18T21:54:45.129Z,99974.56
2024-01-18T21:57:16.182Z,99977.69
2024-01-18T21:59:47.353Z,99978.50
2024-01-18T22:02:17.950Z,99970.81
2024-01-18T22:04:50.191Z,99981.16
2024-01-18T22:07:20.258Z,99967.75
2024-01-18T22:09:50.821Z,99982.13
2024-01-18T22:12:21.047Z,99990.03
2024-01-18T22:14:51.640Z,99998.63
2024-01-18T22:17:22.285Z,100002.56
2024-01-18T22:20:01.041Z,100004.22
2024-01-18T22:22:34.867Z,100009.44
2024-01-18T22:25:05.701Z,100012.16
2024-01-18T22:27:35.658Z,100018.03
2024-01-18T22:30:08.686Z,100022.34
2024-01-18T22:32:38.688Z,100027.31
2024-01-18T22:35:12.728Z,100035.00
2024-01-18T22:37:43.411Z,100042.28
2024-01-18T22:40:14.189Z,100048.50
2024-01-18T22:42:45.228Z,100043.72
2024-01-18T22:45:16.531Z,100042.16
2024-01-18T22:47:46.479Z,100045.09
2024-01-18T22:50:17.226Z,100046.16
2024-01-18T22:52:47.285Z,100044.22
2024-01-18T22:55:17.750Z,100047.13
2024-01-18T22:57:47.584Z,100041.75
2024-01-18T23:00:19.441Z,100042.44
2024-01-18T23:02:49.870Z,100036.47
2024-01-18T23:05:21.020Z,100046.13
2024-01-18T23:07:54.176Z,100054.19
2024-01-18T23:10:24.561Z,100043.81
2024-01-18T23:12:54.643Z,100038.78
2024-01-18T23:15:25.416Z,100033.06
2024-01-18T23:17:55.865Z,100034.25
2024-01-18T23:20:27.027Z,100040.88
2024-01-18T23:22:59.904Z,100039.03
2024-01-18T23:25:30.955Z,100052.03
2024-01-18T23:28:01.519Z,100052.31
2024-01-18T23:30:32.404Z,100055.00
2024-01-18T23:33:02.613Z,100059.56
2024-01-18T23:35:36.271Z,100061.44
2024-01-18T23:38:09.323Z,100069.44
2024-01-18T23:40:39.709Z,100071.97
2024-01-18T23:43:09.872Z,100068.56
2024-01-18T23:45:40.298Z,100062.97
2024-01-18T23:48:10.764Z,100053.13
2024-01-18T23:50:41.251Z,100062.59
2024-01-18T23:53:13.870Z,100064.47
2024-01-18T23:55:44.339Z,100085.59
2024-01-18T23:58:14.282Z,100085.78
